sensor_id;sensor_type;location;lat;lon;timestamp;pressure;altitude;pressure_sealevel;temperature;humidity
58239;BME280;44037;55.638;37.356;2024-02-21T00:02:19;99802.84;;;-9.55;74.08
58239;BME280;44037;55.638;37.356;2024-02-21T00:04:47;99799.41;;;-9.55;73.80
58239;BME280;44037;55.638;37.356;2024-02-21T00:07:14;99799.28;;;-9.52;73.87
58239;BME280;44037;55.638;37.356;2024-02-21T00:09:41;99799.03;;;-9.45;73.60
58239;BME280;44037;55.638;37.356;2024-02-21T00:12:09;99791.63;;;-9.57;73.40
58239;BME280;44037;55.638;37.356;2024-02-21T00:14:37;99793.28;;;-9.54;73.37
58239;BME280;44037;55.638;37.356;2024-02-21T00:17:05;99797.66;;;-9.55;73.53
58239;BME280;44037;55.638;37.356;2024-02-21T00:19:34;99796.88;;;-9.58;73.34
58239;BME280;44037;55.638;37.356;2024-02-21T00:22:02;99797.84;;;-9.61;73.18
58239;BME280;44037;55.638;37.356;2024-02-21T00:24:29;99795.94;;;-9.56;73.63
58239;BME280;44037;55.638;37.356;2024-02-21T00:26:56;99790.59;;;-9.51;73.58
58239;BME280;44037;55.638;37.356;2024-02-21T00:29:24;99794.75;;;-9.46;73.33
58239;BME280;44037;55.638;37.356;2024-02-21T00:31:53;99796.59;;;-9.49;73.50
58239;BME280;44037;55.638;37.356;2024-02-21T00:34:20;99792.69;;;-9.36;73.39
58239;BME280;44037;55.638;37.356;2024-02-21T00:36:47;99793.66;;;-9.38;73.05
58239;BME280;44037;55.638;37.356;2024-02-21T00:39:15;99788.28;;;-9.34;72.68
58239;BME280;44037;55.638;37.356;2024-02-21T00:41:42;99784.09;;;-9.38;73.00
58239;BME280;44037;55.638;37.356;2024-02-21T00:44:10;99780.19;;;-9.24;73.22
58239;BME280;44037;55.638;37.356;2024-02-21T00:46:37;99773.16;;;-9.22;72.66
58239;BME280;44037;55.638;37.356;2024-02-21T00:49:06;99775.44;;;-9.13;72.60
58239;BME280;44037;55.638;37.356;2024-02-21T00:51:33;99774.56;;;-9.12;72.53
58239;BME280;44037;55.638;37.356;2024-02-21T00:54:01;99770.78;;;-9.03;72.37
58239;BME280;44037;55.638;37.356;2024-02-21T00:56:28;99769.88;;;-9.02;72.02
58239;BME280;44037;55.638;37.356;2024-02-21T00:58:56;99762.03;;;-9.01;72.04
58239;BME280;44037;55.638;37.356;2024-02-21T01:01:24;99760.69;;;-8.87;72.10
58239;BME280;44037;55.638;37.356;2024-02-21T01:03:52;99758.72;;;-8.81;71.91
58239;BME280;44037;55.638;37.356;2024-02-21T01:06:21;99761.34;;;-8.82;71.79
58239;BME280;44037;55.638;37.356;2024-02-21T01:08:56;99759.44;;;-8.77;71.48
58239;BME280;44037;55.638;37.356;2024-02-21T01:11:23;99760.59;;;-8.84;71.24
58239;BME280;44037;55.638;37.356;2024-02-21T01:13:50;99760.25;;;-8.75;71.28
58239;BME280;44037;55.638;37.356;2024-02-21T01:16:18;99752.31;;;-8.72;71.42
58239;BME280;44037;55.638;37.356;2024-02-21T01:18:45;99746.66;;;-8.59;71.10
58239;BME280;44037;55.638;37.356;2024-02-21T01:21:12;99750.19;;;-8.61;70.98
58239;BME280;44037;55.638;37.356;2024-02-21T01:23:40;99745.19;;;-8.67;70.62
58239;BME280;44037;55.638;37.356;2024-02-21T01:26:08;99746.13;;;-8.68;70.91
58239;BME280;44037;55.638;37.356;2024-02-21T01:28:39;99739.88;;;-8.64;70.95
58239;BME280;44037;55.638;37.356;2024-02-21T01:31:06;99741.34;;;-8.56;71.00
58239;BME280;44037;55.638;37.356;2024-02-21T01:33:33;99734.31;;;-8.54;70.73
58239;BME280;44037;55.638;37.356;2024-02-21T01:36:01;99736.59;;;-8.45;70.90
58239;BME280;44037;55.638;37.356;2024-02-21T01:38:29;99730.34;;;-8.41;70.51
58239;BME280;44037;55.638;37.356;2024-02-21T01:40:57;99733.41;;;-8.30;70.59
58239;BME280;44037;55.638;37.356;2024-02-21T01:43:26;99733.81;;;-8.40;70.21
58239;BME280;44037;55.638;37.356;2024-02-21T01:45:55;99731.09;;;-8.37;70.41
58239;BME280;44037;55.638;37.356;2024-02-21T01:48:22;99727.69;;;-8.39;70.59
58239;BME280;44037;55.638;37.356;2024-02-21T01:50:51;99730.34;;;-8.41;70.37
58239;BME280;44037;55.638;37.356;2024-02-21T01:53:25;99721.50;;;-8.37;70.55
58239;BME280;44037;55.638;37.356;2024-02-21T01:55:54;99721.50;;;-8.37;70.23
58239;BME280;44037;55.638;37.356;2024-02-21T01:58:22;99722.25;;;-8.33;70.54
58239;BME280;44037;55.638;37.356;2024-02-21T02:00:53;99706.72;;;-8.36;70.70
58239;BME280;44037;55.638;37.356;2024-02-21T02:03:21;99706.50;;;-8.30;70.87
58239;BME280;44037;55.638;37.356;2024-02-21T02:05:49;99704.19;;;-8.16;71.18
58239;BME280;44037;55.638;37.356;2024-02-21T02:08:18;99699.91;;;-8.17;70.20
58239;BME280;44037;55.638;37.356;2024-02-21T02:10:48;99701.75;;;-8.20;70.41
58239;BME280;44037;55.638;37.356;2024-02-21T02:13:15;99703.97;;;-8.09;70.57
58239;BME280;44037;55.638;37.356;2024-02-21T02:15:44;99700.50;;;-8.10;70.57
58239;BME280;44037;55.638;37.356;2024-02-21T02:18:15;99698.78;;;-8.11;70.40
58239;BME280;44037;55.638;37.356;2024-02-21T02:20:44;99698.63;;;-8.06;70.02
58239;BME280;44037;55.638;37.356;2024-02-21T02:23:28;99699.06;;;-8.17;70.26
58239;BME280;44037;55.638;37.356;2024-02-21T02:25:57;99696.78;;;-8.26;70.62
58239;BME280;44037;55.638;37.356;2024-02-21T02:28:29;99696.44;;;-8.17;70.68
58239;BME280;44037;55.638;37.356;2024-02-21T02:30:57;99705.63;;;-8.08;70.59
58239;BME280;44037;55.638;37.356;2024-02-21T02:33:24;99709.88;;;-8.06;70.91
58239;BME280;44037;55.638;37.356;2024-02-21T02:35:51;99707.94;;;-8.01;70.64
58239;BME280;44037;55.638;37.356;2024-02-21T02:38:19;99709.66;;;-8.00;70.58
58239;BME280;44037;55.638;37.356;2024-02-21T02:40:48;99709.41;;;-7.93;70.80
58239;BME280;44037;55.638;37.356;2024-02-21T02:43:15;99698.97;;;-7.93;70.74
58239;BME280;44037;55.638;37.356;2024-02-21T02:45:42;99703.16;;;-7.89;70.64
58239;BME280;44037;55.638;37.356;2024-02-21T02:48:10;99704.69;;;-7.84;70.32
58239;BME280;44037;55.638;37.356;2024-02-21T02:50:37;99704.53;;;-7.81;70.50
58239;BME280;44037;55.638;37.356;2024-02-21T02:53:04;99705.03;;;-7.71;70.25
58239;BME280;44037;55.638;37.356;2024-02-21T02:55:31;99707.75;;;-7.74;70.33
58239;BME280;44037;55.638;37.356;2024-02-21T02:58:00;99709.97;;;-7.65;70.36
58239;BME280;44037;55.638;37.356;2024-02-21T03:00:28;99704.66;;;-7.62;70.14
58239;BME280;44037;55.638;37.356;2024-02-21T03:02:56;99702.75;;;-7.58;70.16
58239;BME280;44037;55.638;37.356;2024-02-21T03:05:23;99699.88;;;-7.52;69.98
58239;BME280;44037;55.638;37.356;2024-02-21T03:07:50;99707.09;;;-7.58;69.86
58239;BME280;44037;55.638;37.356;2024-02-21T03:10:17;99698.06;;;-7.50;70.07
58239;BME280;44037;55.638;37.356;2024-02-21T03:12:45;99693.81;;;-7.52;69.69
58239;BME280;44037;55.638;37.356;2024-02-21T03:15:14;99701.44;;;-7.48;69.84
58239;BME280;44037;55.638;37.356;2024-02-21T03:17:41;99707.09;;;-7.38;70.11
58239;BME280;44037;55.638;37.356;2024-02-21T03:20:09;99703.44;;;-7.34;69.91
58239;BME280;44037;55.638;37.356;2024-02-21T03:22:37;99690.28;;;-7.31;69.81
58239;BME280;44037;55.638;37.356;2024-02-21T03:25:06;99689.06;;;-7.23;69.74
58239;BME280;44037;55.638;37.356;2024-02-21T03:27:37;99696.25;;;-7.29;69.56
58239;BME280;44037;55.638;37.356;2024-02-21T03:30:06;99691.69;;;-7.23;69.88
58239;BME280;44037;55.638;37.356;2024-02-21T03:32:36;99697.97;;;-7.28;69.75
58239;BME280;44037;55.638;37.356;2024-02-21T03:35:04;99694.38;;;-7.25;69.71
58239;BME280;44037;55.638;37.356;2024-02-21T03:37:31;99702.66;;;-7.15;69.60
58239;BME280;44037;55.638;37.356;2024-02-21T03:39:59;99697.28;;;-7.12;69.62
58239;BME280;44037;55.638;37.356;2024-02-21T03:42:26;99690.44;;;-7.15;69.80
58239;BME280;44037;55.638;37.356;2024-02-21T03:44:55;99696.38;;;-7.11;69.94
58239;BME280;44037;55.638;37.356;2024-02-21T03:47:23;99689.84;;;-7.01;70.12
58239;BME280;44037;55.638;37.356;2024-02-21T03:49:51;99688.50;;;-6.90;69.74
58239;BME280;44037;55.638;37.356;2024-02-21T03:52:19;99689.84;;;-7.01;69.30
58239;BME280;44037;55.638;37.356;2024-02-21T03:54:46;99691.41;;;-6.97;69.84
58239;BME280;44037;55.638;37.356;2024-02-21T03:57:13;99688.72;;;-6.95;69.53
58239;BME280;44037;55.638;37.356;2024-02-21T03:59:41;99695.22;;;-6.85;69.40
58239;BME280;44037;55.638;37.356;2024-02-21T04:02:08;99689.16;;;-6.85;69.34
58239;BME280;44037;55.638;37.356;2024-02-21T04:04:36;99689.56;;;-6.94;69.21
58239;BME280;44037;55.638;37.356;2024-02-21T04:07:05;99682.50;;;-6.92;69.30
58239;BME280;44037;55.638;37.356;2024-02-21T04:09:33;99692.19;;;-6.94;69.37
58239;BME280;44037;55.638;37.356;2024-02-21T04:12:00;99695.44;;;-6.89;69.75
58239;BME280;44037;55.638;37.356;2024-02-21T04:14:28;99691.41;;;-6.97;69.76
58239;BME280;44037;55.638;37.356;2024-02-21T04:16:55;99690.63;;;-6.99;69.63
58239;BME280;44037;55.638;37.356;2024-02-21T04:19:22;99693.81;;;-6.92;69.92
58239;BME280;44037;55.638;37.356;2024-02-21T04:21:50;99691.56;;;-6.81;69.59
58239;BME280;44037;55.638;37.356;2024-02-21T04:24:18;99696.09;;;-6.84;69.46
58239;BME280;44037;55.638;37.356;2024-02-21T04:26:46;99695.94;;;-6.81;69.19
58239;BME280;44037;55.638;37.356;2024-02-21T04:29:13;99689.81;;;-6.80;69.63
58239;BME280;44037;55.638;37.356;2024-02-21T04:31:40;99696.50;;;-6.74;69.38
58239;BME280;44037;55.638;37.356;2024-02-21T04:34:08;99695.66;;;-6.75;69.61
58239;BME280;44037;55.638;37.356;2024-02-21T04:36:35;99693.81;;;-6.73;69.12
58239;BME280;44037;55.638;37.356;2024-02-21T04:39:02;99691.34;;;-6.76;69.33
58239;BME280;44037;55.638;37.356;2024-02-21T04:41:31;99705.97;;;-6.72;69.31
58239;BME280;44037;55.638;37.356;2024-02-21T04:43:58;99699.69;;;-6.68;69.54
58239;BME280;44037;55.638;37.356;2024-02-21T04:46:25;99694.44;;;-6.68;69.46
58239;BME280;44037;55.638;37.356;2024-02-21T04:48:53;99702.63;;;-6.75;69.80
58239;BME280;44037;55.638;37.356;2024-02-21T04:51:21;99697.06;;;-6.68;69.59
58239;BME280;44037;55.638;37.356;2024-02-21T04:53:49;99699.81;;;-6.71;69.54
58239;BME280;44037;55.638;37.356;2024-02-21T04:56:16;99702.16;;;-6.65;69.57
58239;BME280;44037;55.638;37.356;2024-02-21T04:58:45;99699.13;;;-6.55;69.36
58239;BME280;44037;55.638;37.356;2024-02-21T05:01:12;99694.97;;;-6.59;69.40
58239;BME280;44037;55.638;37.356;2024-02-21T05:03:39;99688.69;;;-6.55;69.27
58239;BME280;44037;55.638;37.356;2024-02-21T05:06:06;99691.44;;;-6.58;69.19
58239;BME280;44037;55.638;37.356;2024-02-21T05:08:34;99690.66;;;-6.60;69.10
58239;BME280;44037;55.638;37.356;2024-02-21T05:11:02;99691.13;;;-6.52;69.24
58239;BME280;44037;55.638;37.356;2024-02-21T05:13:29;99700.25;;;-6.42;69.08
58239;BME280;44037;55.638;37.356;2024-02-21T05:15:58;99694.53;;;-6.50;69.11
58239;BME280;44037;55.638;37.356;2024-02-21T05:18:27;99701.88;;;-6.39;68.76
58239;BME280;44037;55.638;37.356;2024-02-21T05:20:54;99704.56;;;-6.41;69.01
58239;BME280;44037;55.638;37.356;2024-02-21T05:23:22;99693.69;;;-6.51;68.72
58239;BME280;44037;55.638;37.356;2024-02-21T05:25:49;99702.09;;;-6.44;69.20
58239;BME280;44037;55.638;37.356;2024-02-21T05:28:16;99699.41;;;-6.42;68.71
58239;BME280;44037;55.638;37.356;2024-02-21T05:30:44;99696.78;;;-6.42;69.01
58239;BME280;44037;55.638;37.356;2024-02-21T05:33:12;99688.44;;;-6.32;69.02
58239;BME280;44037;55.638;37.356;2024-02-21T05:35:46;99696.50;;;-6.17;68.87
58239;BME280;44037;55.638;37.356;2024-02-21T05:38:14;99698.75;;;-6.09;68.45
58239;BME280;44037;55.638;37.356;2024-02-21T05:40:42;99699.44;;;-6.06;68.87
58239;BME280;44037;55.638;37.356;2024-02-21T05:43:10;99693.25;;;-6.22;68.17
58239;BME280;44037;55.638;37.356;2024-02-21T05:45:37;99698.81;;;-6.11;68.36
58239;BME280;44037;55.638;37.356;2024-02-21T05:48:05;99700.38;;;-6.07;68.46
58239;BME280;44037;55.638;37.356;2024-02-21T05:50:34;99694.69;;;-5.98;68.00
58239;BME280;44037;55.638;37.356;2024-02-21T05:53:03;99689.31;;;-5.94;68.08
58239;BME280;44037;55.638;37.356;2024-02-21T05:55:30;99694.31;;;-5.90;67.69
58239;BME280;44037;55.638;37.356;2024-02-21T05:57:57;99702.25;;;-5.74;67.60
58239;BME280;44037;55.638;37.356;2024-02-21T06:00:25;99704.88;;;-5.74;67.46
58239;BME280;44037;55.638;37.356;2024-02-21T06:02:52;99697.03;;;-5.74;67.34
58239;BME280;44037;55.638;37.356;2024-02-21T06:05:20;99701.19;;;-5.70;67.17
58239;BME280;44037;55.638;37.356;2024-02-21T06:07:49;99696.50;;;-5.63;66.94
58239;BME280;44037;55.638;37.356;2024-02-21T06:10:16;99701.03;;;-5.67;66.85
58239;BME280;44037;55.638;37.356;2024-02-21T06:12:44;99699.50;;;-5.53;66.92
58239;BME280;44037;55.638;37.356;2024-02-21T06:15:11;99700.13;;;-5.48;66.96
58239;BME280;44037;55.638;37.356;2024-02-21T06:17:38;99697.19;;;-5.24;66.60
58239;BME280;44037;55.638;37.356;2024-02-21T06:20:07;99702.44;;;-5.24;65.92
58239;BME280;44037;55.638;37.356;2024-02-21T06:22:34;99688.56;;;-5.26;65.76
58239;BME280;44037;55.638;37.356;2024-02-21T06:25:03;99706.28;;;-5.32;65.73
58239;BME280;44037;55.638;37.356;2024-02-21T06:27:31;99695.63;;;-5.28;66.00
58239;BME280;44037;55.638;37.356;2024-02-21T06:29:58;99705.31;;;-5.13;65.78
58239;BME280;44037;55.638;37.356;2024-02-21T06:32:25;99688.81;;;-4.98;65.67
58239;BME280;44037;55.638;37.356;2024-02-21T06:34:53;99701.22;;;-5.01;65.79
58239;BME280;44037;55.638;37.356;2024-02-21T06:37:20;99699.56;;;-4.86;65.15
58239;BME280;44037;55.638;37.356;2024-02-21T06:39:48;99699.19;;;-4.78;65.14
58239;BME280;44037;55.638;37.356;2024-02-21T06:42:16;99704.59;;;-4.66;64.43
58239;BME280;44037;55.638;37.356;2024-02-21T06:44:44;99706.31;;;-4.65;63.87
58239;BME280;44037;55.638;37.356;2024-02-21T06:47:11;99701.75;;;-4.61;64.25
58239;BME280;44037;55.638;37.356;2024-02-21T06:49:39;99700.28;;;-4.67;64.06
58239;BME280;44037;55.638;37.356;2024-02-21T06:52:07;99691.91;;;-4.73;64.13
58239;BME280;44037;55.638;37.356;2024-02-21T06:54:34;99691.50;;;-4.82;64.33
58239;BME280;44037;55.638;37.356;2024-02-21T06:57:02;99690.25;;;-4.58;64.61
58239;BME280;44037;55.638;37.356;2024-02-21T06:59:31;99689.91;;;-4.52;63.69
58239;BME280;44037;55.638;37.356;2024-02-21T07:01:58;99683.13;;;-4.56;63.71
58239;BME280;44037;55.638;37.356;2024-02-21T07:04:26;99687.38;;;-4.54;63.66
58239;BME280;44037;55.638;37.356;2024-02-21T07:06:55;99689.56;;;-4.46;63.76
58239;BME280;44037;55.638;37.356;2024-02-21T07:09:22;99685.69;;;-4.23;63.13
58239;BME280;44037;55.638;37.356;2024-02-21T07:11:50;99681.72;;;-4.14;63.11
58239;BME280;44037;55.638;37.356;2024-02-21T07:14:18;99676.38;;;-3.96;62.44
58239;BME280;44037;55.638;37.356;2024-02-21T07:16:47;99678.75;;;-4.08;62.33
58239;BME280;44037;55.638;37.356;2024-02-21T07:19:14;99671.38;;;-4.01;62.66
58239;BME280;44037;55.638;37.356;2024-02-21T07:21:41;99676.13;;;-4.08;62.22
58239;BME280;44037;55.638;37.356;2024-02-21T07:24:09;99671.13;;;-3.96;62.45
58239;BME280;44037;55.638;37.356;2024-02-21T07:26:36;99673.75;;;-4.12;62.09
58239;BME280;44037;55.638;37.356;2024-02-21T07:29:04;99673.66;;;-4.11;62.66
58239;BME280;44037;55.638;37.356;2024-02-21T07:31:38;99671.63;;;-4.06;63.43
58239;BME280;44037;55.638;37.356;2024-02-21T07:34:07;99673.06;;;-4.00;62.22
58239;BME280;44037;55.638;37.356;2024-02-21T07:36:35;99671.22;;;-4.14;62.09
58239;BME280;44037;55.638;37.356;2024-02-21T07:39:03;99667.81;;;-4.00;62.53
58239;BME280;44037;55.638;37.356;2024-02-21T07:41:31;99670.38;;;-4.15;62.33
58239;BME280;44037;55.638;37.356;2024-02-21T07:44:00;99676.97;;;-4.07;62.88
58239;BME280;44037;55.638;37.356;2024-02-21T07:46:27;99674.78;;;-4.15;62.47
58239;BME280;44037;55.638;37.356;2024-02-21T07:48:54;99668.19;;;-4.22;62.34
58239;BME280;44037;55.638;37.356;2024-02-21T07:51:27;99671.31;;;-4.16;63.03
58239;BME280;44037;55.638;37.356;2024-02-21T07:53:54;99666.03;;;-3.84;63.00
58239;BME280;44037;55.638;37.356;2024-02-21T07:56:22;99669.00;;;-3.90;62.54
58239;BME280;44037;55.638;37.356;2024-02-21T07:58:49;99663.56;;;-3.87;62.25
58239;BME280;44037;55.638;37.356;2024-02-21T08:01:18;99657.97;;;-3.80;61.96
58239;BME280;44037;55.638;37.356;2024-02-21T08:03:46;99655.56;;;-3.69;61.86
58239;BME280;44037;55.638;37.356;2024-02-21T08:06:14;99657.31;;;-3.70;61.60
58239;BME280;44037;55.638;37.356;2024-02-21T08:08:43;99659.38;;;-3.75;62.11
58239;BME280;44037;55.638;37.356;2024-02-21T08:11:10;99658.28;;;-3.71;61.59
58239;BME280;44037;55.638;37.356;2024-02-21T08:13:37;99660.53;;;-3.65;62.05
58239;BME280;44037;55.638;37.356;2024-02-21T08:16:05;99633.81;;;-3.71;61.55
58239;BME280;44037;55.638;37.356;2024-02-21T08:18:32;99652.06;;;-3.70;61.51
58239;BME280;44037;55.638;37.356;2024-02-21T08:21:03;99655.25;;;-3.79;61.33
58239;BME280;44037;55.638;37.356;2024-02-21T08:23:31;99653.97;;;-3.72;61.62
58239;BME280;44037;55.638;37.356;2024-02-21T08:26:02;99655.47;;;-3.68;61.54
58239;BME280;44037;55.638;37.356;2024-02-21T08:28:30;99652.75;;;-3.66;61.49
58239;BME280;44037;55.638;37.356;2024-02-21T08:30:57;99648.03;;;-3.75;61.65
58239;BME280;44037;55.638;37.356;2024-02-21T08:33:24;99666.41;;;-3.45;61.26
58239;BME280;44037;55.638;37.356;2024-02-21T08:35:52;99663.34;;;-3.08;60.57
58239;BME280;44037;55.638;37.356;2024-02-21T08:38:19;99658.97;;;-2.79;60.04
58239;BME280;44037;55.638;37.356;2024-02-21T08:40:46;99661.38;;;-2.61;59.34
58239;BME280;44037;55.638;37.356;2024-02-21T08:43:15;99658.91;;;-2.50;58.74
58239;BME280;44037;55.638;37.356;2024-02-21T08:45:42;99655.06;;;-2.59;57.91
58239;BME280;44037;55.638;37.356;2024-02-21T08:48:10;99656.09;;;-2.61;58.16
58239;BME280;44037;55.638;37.356;2024-02-21T08:50:37;99653.78;;;-2.66;58.08
58239;BME280;44037;55.638;37.356;2024-02-21T08:53:04;99648.41;;;-2.64;57.75
58239;BME280;44037;55.638;37.356;2024-02-21T08:55:32;99647.16;;;-2.44;57.82
58239;BME280;44037;55.638;37.356;2024-02-21T08:58:00;99650.13;;;-2.63;57.96
58239;BME280;44037;55.638;37.356;2024-02-21T09:00:31;99652.81;;;-2.65;57.68
58239;BME280;44037;55.638;37.356;2024-02-21T09:02:59;99646.16;;;-2.71;58.28
58239;BME280;44037;55.638;37.356;2024-02-21T09:05:26;99653.06;;;-2.41;58.04
58239;BME280;44037;55.638;37.356;2024-02-21T09:07:53;99646.28;;;-2.03;57.33
58239;BME280;44037;55.638;37.356;2024-02-21T09:10:21;99643.00;;;-2.34;57.25
58239;BME280;44037;55.638;37.356;2024-02-21T09:12:48;99646.16;;;-2.29;57.14
58239;BME280;44037;55.638;37.356;2024-02-21T09:15:16;99634.06;;;-2.31;57.20
58239;BME280;44037;55.638;37.356;2024-02-21T09:17:44;99632.63;;;-2.50;57.36
58239;BME280;44037;55.638;37.356;2024-02-21T09:20:12;99633.16;;;-2.45;57.36
58239;BME280;44037;55.638;37.356;2024-02-21T09:22:42;99630.16;;;-2.39;57.74
58239;BME280;44037;55.638;37.356;2024-02-21T09:25:09;99635.69;;;-2.16;57.45
58239;BME280;44037;55.638;37.356;2024-02-21T09:27:37;99628.56;;;-2.14;57.75
58239;BME280;44037;55.638;37.356;2024-02-21T09:30:06;99631.34;;;-2.03;57.29
58239;BME280;44037;55.638;37.356;2024-02-21T09:32:33;99630.94;;;-1.96;56.33
58239;BME280;44037;55.638;37.356;2024-02-21T09:35:02;99623.28;;;-2.14;56.57
58239;BME280;44037;55.638;37.356;2024-02-21T09:37:31;99633.00;;;-2.29;57.16
58239;BME280;44037;55.638;37.356;2024-02-21T09:39:58;99622.38;;;-2.13;57.57
58239;BME280;44037;55.638;37.356;2024-02-21T09:42:31;99617.13;;;-2.00;57.01
58239;BME280;44037;55.638;37.356;2024-02-21T09:45:03;99621.28;;;-1.83;56.54
58239;BME280;44037;55.638;37.356;2024-02-21T09:47:41;99616.41;;;-1.89;56.35
58239;BME280;44037;55.638;37.356;2024-02-21T09:50:12;99619.59;;;-1.84;56.30
58239;BME280;44037;55.638;37.356;2024-02-21T09:52:41;99616.66;;;-1.79;56.19
58239;BME280;44037;55.638;37.356;2024-02-21T09:55:10;99618.56;;;-1.69;56.48
58239;BME280;44037;55.638;37.356;2024-02-21T09:57:40;99619.78;;;-2.00;56.32
58239;BME280;44037;55.638;37.356;2024-02-21T10:00:08;99613.41;;;-1.70;56.20
58239;BME280;44037;55.638;37.356;2024-02-21T10:02:35;99607.78;;;-2.19;56.76
58239;BME280;44037;55.638;37.356;2024-02-21T10:05:03;99616.34;;;-2.15;56.91
58239;BME280;44037;55.638;37.356;2024-02-21T10:07:35;99614.66;;;-1.89;56.68
58239;BME280;44037;55.638;37.356;2024-02-21T10:10:04;99609.31;;;-2.14;56.55
58239;BME280;44037;55.638;37.356;2024-02-21T10:12:32;99615.25;;;-1.85;56.79
58239;BME280;44037;55.638;37.356;2024-02-21T10:15:00;99615.28;;;-1.72;56.62
58239;BME280;44037;55.638;37.356;2024-02-21T10:17:29;99614.72;;;-1.90;56.29
58239;BME280;44037;55.638;37.356;2024-02-21T10:20:06;99606.28;;;-1.95;56.67
58239;BME280;44037;55.638;37.356;2024-02-21T10:22:35;99601.47;;;-2.02;56.66
58239;BME280;44037;55.638;37.356;2024-02-21T10:25:08;99601.97;;;-2.09;56.85
58239;BME280;44037;55.638;37.356;2024-02-21T10:27:36;99610.06;;;-2.00;57.05
58239;BME280;44037;55.638;37.356;2024-02-21T10:30:05;99603.50;;;-2.20;57.70
58239;BME280;44037;55.638;37.356;2024-02-21T10:32:32;99609.56;;;-2.32;58.33
58239;BME280;44037;55.638;37.356;2024-02-21T10:35:04;99604.66;;;-2.11;57.39
58239;BME280;44037;55.638;37.356;2024-02-21T10:37:32;99602.84;;;-2.23;57.83
58239;BME280;44037;55.638;37.356;2024-02-21T10:40:01;99610.31;;;-2.30;57.66
58239;BME280;44037;55.638;37.356;2024-02-21T10:42:31;99608.44;;;-2.42;57.80
58239;BME280;44037;55.638;37.356;2024-02-21T10:45:01;99613.00;;;-2.31;57.98
58239;BME280;44037;55.638;37.356;2024-02-21T10:47:32;99598.44;;;-2.23;57.17
58239;BME280;44037;55.638;37.356;2024-02-21T10:50:04;99606.91;;;-2.05;57.26
58239;BME280;44037;55.638;37.356;2024-02-21T10:52:42;99598.69;;;-2.13;57.44
58239;BME280;44037;55.638;37.356;2024-02-21T10:55:20;99603.53;;;-2.07;57.07
58239;BME280;44037;55.638;37.356;2024-02-21T10:57:49;99601.97;;;-2.09;56.92
58239;BME280;44037;55.638;37.356;2024-02-21T11:00:17;99607.13;;;-2.08;57.06
58239;BME280;44037;55.638;37.356;2024-02-21T11:02:46;99591.13;;;-2.05;56.79
58239;BME280;44037;55.638;37.356;2024-02-21T11:05:19;99585.59;;;-2.27;57.11
58239;BME280;44037;55.638;37.356;2024-02-21T11:07:47;99593.72;;;-2.45;57.98
58239;BME280;44037;55.638;37.356;2024-02-21T11:10:23;99592.69;;;-2.42;57.94
58239;BME280;44037;55.638;37.356;2024-02-21T11:12:52;99587.34;;;-2.55;58.60
58239;BME280;44037;55.638;37.356;2024-02-21T11:15:25;99579.75;;;-2.60;59.02
58239;BME280;44037;55.638;37.356;2024-02-21T11:17:55;99580.41;;;-2.56;58.47
58239;BME280;44037;55.638;37.356;2024-02-21T11:20:32;99576.66;;;-2.67;58.91
58239;BME280;44037;55.638;37.356;2024-02-21T11:23:00;99579.75;;;-2.60;58.46
58239;BME280;44037;55.638;37.356;2024-02-21T11:25:29;99577.81;;;-2.71;58.97
58239;BME280;44037;55.638;37.356;2024-02-21T11:28:00;99571.25;;;-2.63;58.82
58239;BME280;44037;55.638;37.356;2024-02-21T11:30:29;99576.97;;;-2.71;58.83
58239;BME280;44037;55.638;37.356;2024-02-21T11:33:00;99574.03;;;-2.67;59.11
58239;BME280;44037;55.638;37.356;2024-02-21T11:35:31;99555.75;;;-2.68;59.34
58239;BME280;44037;55.638;37.356;2024-02-21T11:38:08;99580.44;;;-2.71;59.40
58239;BME280;44037;55.638;37.356;2024-02-21T11:40:40;99567.72;;;-2.91;59.80
58239;BME280;44037;55.638;37.356;2024-02-21T11:43:07;99565.75;;;-2.88;59.86
58239;BME280;44037;55.638;37.356;2024-02-21T11:45:34;99566.00;;;-2.78;59.52
58239;BME280;44037;55.638;37.356;2024-02-21T11:48:04;99568.84;;;-2.95;59.78
58239;BME280;44037;55.638;37.356;2024-02-21T11:50:32;99566.78;;;-2.90;60.12
58239;BME280;44037;55.638;37.356;2024-02-21T11:52:59;99559.66;;;-3.03;60.09
58239;BME280;44037;55.638;37.356;2024-02-21T11:55:26;99569.06;;;-3.13;60.54
58239;BME280;44037;55.638;37.356;2024-02-21T11:57:55;99571.66;;;-2.99;61.03
58239;BME280;44037;55.638;37.356;2024-02-21T12:00:25;99558.94;;;-3.05;60.75
58239;BME280;44037;55.638;37.356;2024-02-21T12:02:52;99562.09;;;-3.14;60.93
58239;BME280;44037;55.638;37.356;2024-02-21T12:05:21;99562.75;;;-2.96;60.76
58239;BME280;44037;55.638;37.356;2024-02-21T12:07:48;99553.09;;;-2.95;60.76
58239;BME280;44037;55.638;37.356;2024-02-21T12:10:16;99553.19;;;-3.11;60.74
58239;BME280;44037;55.638;37.356;2024-02-21T12:12:44;99553.84;;;-3.08;61.07
58239;BME280;44037;55.638;37.356;2024-02-21T12:15:13;99546.34;;;-3.14;61.43
58239;BME280;44037;55.638;37.356;2024-02-21T12:17:41;99550.28;;;-3.07;61.26
58239;BME280;44037;55.638;37.356;2024-02-21T12:20:09;99552.53;;;-3.01;60.98
58239;BME280;44037;55.638;37.356;2024-02-21T12:22:37;99546.06;;;-3.09;60.97
58239;BME280;44037;55.638;37.356;2024-02-21T12:25:15;99553.66;;;-3.34;61.53
58239;BME280;44037;55.638;37.356;2024-02-21T12:27:44;99547.69;;;-3.36;61.88
58239;BME280;44037;55.638;37.356;2024-02-21T12:30:13;99551.81;;;-3.32;61.72
58239;BME280;44037;55.638;37.356;2024-02-21T12:32:40;99545.81;;;-3.48;62.24
58239;BME280;44037;55.638;37.356;2024-02-21T12:35:08;99537.19;;;-3.50;62.16
58239;BME280;44037;55.638;37.356;2024-02-21T12:37:36;99547.13;;;-3.55;62.91
58239;BME280;44037;55.638;37.356;2024-02-21T12:40:04;99540.38;;;-3.45;62.53
58239;BME280;44037;55.638;37.356;2024-02-21T12:42:33;99538.38;;;-3.41;62.44
58239;BME280;44037;55.638;37.356;2024-02-21T12:45:01;99540.53;;;-3.34;62.16
58239;BME280;44037;55.638;37.356;2024-02-21T12:47:31;99539.81;;;-3.36;62.30
58239;BME280;44037;55.638;37.356;2024-02-21T12:49:58;99534.56;;;-3.36;62.33
58239;BME280;44037;55.638;37.356;2024-02-21T12:52:26;99534.56;;;-3.36;62.00
58239;BME280;44037;55.638;37.356;2024-02-21T12:54:53;99533.81;;;-3.52;62.72
58239;BME280;44037;55.638;37.356;2024-02-21T12:57:22;99537.09;;;-3.49;62.78